Aérodrome :
LOGIN :

S'inscrire | Disclaimer

   EN    FR    IT 

 










Légende :    VFR   VFR Marginal   IFR   IFR Intensif   IFR Très Intensif
Visi : 
Plafond : 
>= 8 km
>= 3000ft
5 à 8 km
1000 à 3000 ft
1500m à 5 km
500 à 1000 ft
800 à 1500m
200 à 500 ft
< 800m
< 200 ft
Symboles :   Orages  Brouillard  Fortes neiges  Fortes précipitations  Vent > 20 kt
SIGMETs :   Divers  Orages  Givrage  Turbulence  Onde Orograph.  Cendres Volcan.







- Altitude de l'aérodrome : 375 ft
- Code IATA : MST


EHBK - Maastricht Aachen

DERNIER METAR :
  • 222255Z AUTO 18008KT 9999 BKN015 OVC023 M01/M04 Q1000 R03/851593

METARs EXPIRÉS :
  • 222225Z AUTO 17007KT 9999 BKN016 OVC019 M01/M04 Q1000 R03/851593
  • 222155Z AUTO 18007KT 150V210 9999 OVC014 M01/M04 Q1000 R03/851593 TEMPO BKN016
  • 222125Z AUTO 18006KT 9999 OVC015 M01/M04 Q1000 R03/851593 TEMPO BKN014
  • 222055Z AUTO 18007KT 9999 OVC015 M01/M04 Q1000 R03/851593 TEMPO BKN014
  • 222025Z AUTO 19007KT 9999 SCT014 OVC017 M01/M04 Q1001 R03/851593 TEMPO BKN014

TAF TAF EHBK
Valide du 22 à 18h jusqu'au 24 à 00h UTC


221721Z 2218/2324 19010KT 4000 -SG BKN018
BECMG 2218/2219 8000 NSW
TEMPO 2218/2219 2000 -SN BKN008
PROB30 2219/2308 5000 BR BKN012
BECMG 2300/2303 09005KT
PROB40
TEMPO 2312/2317 4000 -SG -SN BKN008
BECMG 2320/2323 1200 BCFG
PROB30 2322/2324 0400 FZFG VV000
Pas de NOTAMs connus pour ce terrain.



MET'MAP, la Météo Aéronautique d'un coup d'oeil ! - Copyright ORBIFLY Décembre 2007 - Disclaimer

ORBIFLY MET'MAP TEAM :

Programmation & Développement : Alexandra Zaïnal
Conception & Développement : Baudouin d'Aumeries
Co-Programmation & Développement : Marc-Olivier Méhu
Soutien technique & logistique : Manuel Goepfert

Contact : metmap@orbifly.com




SOURCES & CREDITS :

   NOAA